Harbine, Nebraska
Current Conditions -  °F | °C
As of 8:15 AM on Thursday 18 Dec 2014 (Local Time) from KBIE Reporting Station
Light Snow Light Snow  
Wind Chill: 26°   Ceiling: 3000
Heat Index: 26°   Visibility: 2.5mi
Dew Point: 25°   Wind: 0mph
Humidity: 96%   Direction: NA
Pressure: 30.21"   Gusts: NA
Location:  40.219°N, 97.0292°W
Report Text: KBIE 181415Z AUTO 00000KT 2 1/2SM -SN OVC030 M03/M04 A3021 RMK AO2 T10351041
Loading
Personal Weather Stations






























Interactive Weather Map New forecast layout! Learn more

10-Day Weather Forecast

Advertisements
Track Severe Weather on mobile